sensor_id;sensor_type;location;lat;lon;timestamp;P1;durP1;ratioP1;P2;durP2;ratioP2
10529;SDS011;5313;48.834;9.228;2023-05-15T00:01:05;9.77;;;7.47;;
10529;SDS011;5313;48.834;9.228;2023-05-15T00:03:31;11.77;;;7.23;;
10529;SDS011;5313;48.834;9.228;2023-05-15T00:05:57;9.67;;;7.20;;
10529;SDS011;5313;48.834;9.228;2023-05-15T00:08:22;11.00;;;7.43;;
10529;SDS011;5313;48.834;9.228;2023-05-15T00:10:48;9.53;;;7.27;;
10529;SDS011;5313;48.834;9.228;2023-05-15T00:13:15;9.60;;;7.33;;
10529;SDS011;5313;48.834;9.228;2023-05-15T00:15:41;10.93;;;7.23;;
10529;SDS011;5313;48.834;9.228;2023-05-15T00:18:07;12.50;;;7.27;;
10529;SDS011;5313;48.834;9.228;2023-05-15T00:20:32;9.67;;;7.03;;
10529;SDS011;5313;48.834;9.228;2023-05-15T00:22:58;8.73;;;6.53;;
10529;SDS011;5313;48.834;9.228;2023-05-15T00:25:23;9.33;;;7.13;;
10529;SDS011;5313;48.834;9.228;2023-05-15T00:27:49;10.30;;;7.23;;
10529;SDS011;5313;48.834;9.228;2023-05-15T00:30:14;8.80;;;6.13;;
10529;SDS011;5313;48.834;9.228;2023-05-15T00:32:40;8.70;;;6.93;;
10529;SDS011;5313;48.834;9.228;2023-05-15T00:35:06;8.03;;;6.43;;
10529;SDS011;5313;48.834;9.228;2023-05-15T00:37:31;10.03;;;6.50;;
10529;SDS011;5313;48.834;9.228;2023-05-15T00:39:57;9.63;;;6.83;;
10529;SDS011;5313;48.834;9.228;2023-05-15T00:42:23;9.70;;;7.47;;
10529;SDS011;5313;48.834;9.228;2023-05-15T00:44:49;9.67;;;7.67;;
10529;SDS011;5313;48.834;9.228;2023-05-15T00:47:17;8.07;;;6.17;;
10529;SDS011;5313;48.834;9.228;2023-05-15T00:49:44;8.07;;;6.77;;
10529;SDS011;5313;48.834;9.228;2023-05-15T00:52:12;9.27;;;5.67;;
10529;SDS011;5313;48.834;9.228;2023-05-15T00:54:38;10.63;;;7.00;;
10529;SDS011;5313;48.834;9.228;2023-05-15T00:57:04;9.60;;;7.23;;
10529;SDS011;5313;48.834;9.228;2023-05-15T00:59:32;8.67;;;6.80;;
10529;SDS011;5313;48.834;9.228;2023-05-15T01:01:58;8.53;;;6.10;;
10529;SDS011;5313;48.834;9.228;2023-05-15T01:04:24;9.70;;;5.63;;
10529;SDS011;5313;48.834;9.228;2023-05-15T01:06:50;11.37;;;5.97;;
10529;SDS011;5313;48.834;9.228;2023-05-15T01:09:18;7.80;;;5.80;;
10529;SDS011;5313;48.834;9.228;2023-05-15T01:11:45;7.73;;;5.23;;
10529;SDS011;5313;48.834;9.228;2023-05-15T01:14:14;7.67;;;5.77;;
10529;SDS011;5313;48.834;9.228;2023-05-15T01:16:39;9.10;;;6.70;;
10529;SDS011;5313;48.834;9.228;2023-05-15T01:19:05;7.03;;;6.27;;
10529;SDS011;5313;48.834;9.228;2023-05-15T01:32:10;9.13;;;6.93;;
10529;SDS011;5313;48.834;9.228;2023-05-15T01:34:43;9.00;;;6.90;;
10529;SDS011;5313;48.834;9.228;2023-05-15T01:37:16;10.47;;;6.77;;
10529;SDS011;5313;48.834;9.228;2023-05-15T01:39:44;9.87;;;6.97;;
10529;SDS011;5313;48.834;9.228;2023-05-15T01:42:14;9.13;;;6.90;;
10529;SDS011;5313;48.834;9.228;2023-05-15T01:44:44;9.70;;;7.27;;
10529;SDS011;5313;48.834;9.228;2023-05-15T01:47:17;8.83;;;6.90;;
10529;SDS011;5313;48.834;9.228;2023-05-15T01:49:46;9.50;;;6.37;;
10529;SDS011;5313;48.834;9.228;2023-05-15T01:52:15;9.27;;;7.27;;
10529;SDS011;5313;48.834;9.228;2023-05-15T01:54:44;9.17;;;6.63;;
10529;SDS011;5313;48.834;9.228;2023-05-15T01:57:11;10.77;;;6.90;;
10529;SDS011;5313;48.834;9.228;2023-05-15T01:59:39;9.60;;;6.10;;
10529;SDS011;5313;48.834;9.228;2023-05-15T02:02:06;10.33;;;7.00;;
10529;SDS011;5313;48.834;9.228;2023-05-15T02:04:34;8.53;;;6.77;;
10529;SDS011;5313;48.834;9.228;2023-05-15T02:07:01;8.80;;;6.37;;
10529;SDS011;5313;48.834;9.228;2023-05-15T02:09:28;7.90;;;6.40;;
10529;SDS011;5313;48.834;9.228;2023-05-15T02:11:55;8.37;;;6.33;;
10529;SDS011;5313;48.834;9.228;2023-05-15T02:14:22;8.80;;;6.70;;
10529;SDS011;5313;48.834;9.228;2023-05-15T02:16:50;8.23;;;6.93;;
10529;SDS011;5313;48.834;9.228;2023-05-15T02:19:15;9.63;;;6.27;;
10529;SDS011;5313;48.834;9.228;2023-05-15T02:21:41;10.13;;;7.20;;
10529;SDS011;5313;48.834;9.228;2023-05-15T02:24:06;9.93;;;7.20;;
10529;SDS011;5313;48.834;9.228;2023-05-15T02:26:37;9.87;;;7.67;;
10529;SDS011;5313;48.834;9.228;2023-05-15T02:32:05;12.60;;;6.87;;
10529;SDS011;5313;48.834;9.228;2023-05-15T02:37:27;9.37;;;7.20;;
10529;SDS011;5313;48.834;9.228;2023-05-15T02:39:56;9.43;;;7.23;;
10529;SDS011;5313;48.834;9.228;2023-05-15T02:42:28;9.30;;;6.43;;
10529;SDS011;5313;48.834;9.228;2023-05-15T02:44:55;9.13;;;6.87;;
10529;SDS011;5313;48.834;9.228;2023-05-15T02:47:22;9.70;;;7.10;;
10529;SDS011;5313;48.834;9.228;2023-05-15T02:49:48;7.90;;;6.20;;
10529;SDS011;5313;48.834;9.228;2023-05-15T02:52:14;10.30;;;6.30;;
10529;SDS011;5313;48.834;9.228;2023-05-15T02:54:40;11.23;;;5.97;;
10529;SDS011;5313;48.834;9.228;2023-05-15T02:57:05;6.93;;;5.37;;
10529;SDS011;5313;48.834;9.228;2023-05-15T02:59:32;8.17;;;5.47;;
10529;SDS011;5313;48.834;9.228;2023-05-15T03:01:58;8.07;;;5.30;;
10529;SDS011;5313;48.834;9.228;2023-05-15T03:04:23;6.17;;;5.40;;
10529;SDS011;5313;48.834;9.228;2023-05-15T03:06:49;6.53;;;4.80;;
10529;SDS011;5313;48.834;9.228;2023-05-15T03:09:14;7.27;;;5.03;;
10529;SDS011;5313;48.834;9.228;2023-05-15T03:11:40;7.33;;;4.80;;
10529;SDS011;5313;48.834;9.228;2023-05-15T03:14:06;5.73;;;5.10;;
10529;SDS011;5313;48.834;9.228;2023-05-15T03:16:31;6.50;;;4.80;;
10529;SDS011;5313;48.834;9.228;2023-05-15T03:18:57;5.63;;;4.87;;
10529;SDS011;5313;48.834;9.228;2023-05-15T03:21:22;6.40;;;5.03;;
10529;SDS011;5313;48.834;9.228;2023-05-15T03:23:48;6.10;;;5.00;;
10529;SDS011;5313;48.834;9.228;2023-05-15T03:26:13;5.83;;;4.73;;
10529;SDS011;5313;48.834;9.228;2023-05-15T03:28:38;6.63;;;5.17;;
10529;SDS011;5313;48.834;9.228;2023-05-15T03:31:04;7.03;;;5.27;;
10529;SDS011;5313;48.834;9.228;2023-05-15T03:33:31;6.90;;;5.13;;
10529;SDS011;5313;48.834;9.228;2023-05-15T03:35:57;7.63;;;5.37;;
10529;SDS011;5313;48.834;9.228;2023-05-15T03:38:22;7.93;;;5.60;;
10529;SDS011;5313;48.834;9.228;2023-05-15T03:40:48;6.73;;;5.53;;
10529;SDS011;5313;48.834;9.228;2023-05-15T03:43:13;9.70;;;5.90;;
10529;SDS011;5313;48.834;9.228;2023-05-15T03:45:39;7.90;;;5.60;;
10529;SDS011;5313;48.834;9.228;2023-05-15T03:48:04;5.90;;;5.13;;
10529;SDS011;5313;48.834;9.228;2023-05-15T03:50:30;5.60;;;4.90;;
10529;SDS011;5313;48.834;9.228;2023-05-15T03:52:56;6.43;;;4.93;;
10529;SDS011;5313;48.834;9.228;2023-05-15T03:55:21;5.93;;;4.83;;
10529;SDS011;5313;48.834;9.228;2023-05-15T03:57:47;5.27;;;4.77;;
10529;SDS011;5313;48.834;9.228;2023-05-15T04:00:13;7.63;;;5.03;;
10529;SDS011;5313;48.834;9.228;2023-05-15T04:02:39;7.33;;;4.90;;
10529;SDS011;5313;48.834;9.228;2023-05-15T04:05:05;7.43;;;5.70;;
10529;SDS011;5313;48.834;9.228;2023-05-15T04:07:31;7.00;;;5.00;;
10529;SDS011;5313;48.834;9.228;2023-05-15T04:09:58;8.23;;;5.30;;
10529;SDS011;5313;48.834;9.228;2023-05-15T04:12:26;6.97;;;5.70;;
10529;SDS011;5313;48.834;9.228;2023-05-15T04:17:45;7.27;;;5.03;;
10529;SDS011;5313;48.834;9.228;2023-05-15T04:20:12;7.23;;;5.03;;
10529;SDS011;5313;48.834;9.228;2023-05-15T04:22:39;6.47;;;5.03;;
10529;SDS011;5313;48.834;9.228;2023-05-15T04:25:06;6.37;;;4.80;;
10529;SDS011;5313;48.834;9.228;2023-05-15T04:27:33;7.00;;;5.33;;
10529;SDS011;5313;48.834;9.228;2023-05-15T04:29:59;5.93;;;4.73;;
10529;SDS011;5313;48.834;9.228;2023-05-15T04:32:25;6.27;;;5.20;;
10529;SDS011;5313;48.834;9.228;2023-05-15T04:34:51;5.70;;;5.03;;
10529;SDS011;5313;48.834;9.228;2023-05-15T04:37:17;7.80;;;5.27;;
10529;SDS011;5313;48.834;9.228;2023-05-15T04:39:42;7.23;;;5.17;;
10529;SDS011;5313;48.834;9.228;2023-05-15T04:42:08;5.57;;;4.70;;
10529;SDS011;5313;48.834;9.228;2023-05-15T04:44:33;6.50;;;5.10;;
10529;SDS011;5313;48.834;9.228;2023-05-15T04:46:59;6.30;;;5.53;;
10529;SDS011;5313;48.834;9.228;2023-05-15T04:49:24;7.40;;;5.40;;
10529;SDS011;5313;48.834;9.228;2023-05-15T04:51:50;6.50;;;5.43;;
10529;SDS011;5313;48.834;9.228;2023-05-15T04:54:15;5.87;;;5.10;;
10529;SDS011;5313;48.834;9.228;2023-05-15T04:56:41;6.97;;;5.57;;
10529;SDS011;5313;48.834;9.228;2023-05-15T04:59:06;5.93;;;5.27;;
10529;SDS011;5313;48.834;9.228;2023-05-15T05:01:32;6.43;;;5.20;;
10529;SDS011;5313;48.834;9.228;2023-05-15T05:03:57;9.63;;;5.63;;
10529;SDS011;5313;48.834;9.228;2023-05-15T05:06:23;6.13;;;5.53;;
10529;SDS011;5313;48.834;9.228;2023-05-15T05:08:48;6.60;;;5.67;;
10529;SDS011;5313;48.834;9.228;2023-05-15T05:11:14;6.00;;;5.33;;
10529;SDS011;5313;48.834;9.228;2023-05-15T05:13:39;7.43;;;5.60;;
10529;SDS011;5313;48.834;9.228;2023-05-15T05:16:06;6.60;;;5.73;;
10529;SDS011;5313;48.834;9.228;2023-05-15T05:18:32;7.00;;;5.90;;
10529;SDS011;5313;48.834;9.228;2023-05-15T05:20:58;6.97;;;5.67;;
10529;SDS011;5313;48.834;9.228;2023-05-15T05:23:27;6.97;;;5.50;;
10529;SDS011;5313;48.834;9.228;2023-05-15T05:25:53;6.63;;;5.43;;
10529;SDS011;5313;48.834;9.228;2023-05-15T05:28:19;7.17;;;5.93;;
10529;SDS011;5313;48.834;9.228;2023-05-15T05:30:44;7.53;;;6.10;;
10529;SDS011;5313;48.834;9.228;2023-05-15T05:33:11;7.40;;;6.27;;
10529;SDS011;5313;48.834;9.228;2023-05-15T05:35:36;7.50;;;5.40;;
10529;SDS011;5313;48.834;9.228;2023-05-15T05:38:02;8.27;;;6.57;;
10529;SDS011;5313;48.834;9.228;2023-05-15T05:40:28;10.63;;;6.00;;
10529;SDS011;5313;48.834;9.228;2023-05-15T05:42:53;8.67;;;6.23;;
10529;SDS011;5313;48.834;9.228;2023-05-15T05:45:22;7.50;;;5.87;;
10529;SDS011;5313;48.834;9.228;2023-05-15T05:47:47;9.93;;;6.17;;
10529;SDS011;5313;48.834;9.228;2023-05-15T05:50:13;6.83;;;6.13;;
10529;SDS011;5313;48.834;9.228;2023-05-15T05:52:38;7.67;;;6.37;;
10529;SDS011;5313;48.834;9.228;2023-05-15T05:55:04;9.40;;;7.93;;
10529;SDS011;5313;48.834;9.228;2023-05-15T05:57:30;9.60;;;6.60;;
10529;SDS011;5313;48.834;9.228;2023-05-15T05:59:56;9.10;;;6.10;;
10529;SDS011;5313;48.834;9.228;2023-05-15T06:02:21;7.43;;;6.63;;
10529;SDS011;5313;48.834;9.228;2023-05-15T06:04:47;10.33;;;6.63;;
10529;SDS011;5313;48.834;9.228;2023-05-15T06:07:12;7.07;;;6.10;;
10529;SDS011;5313;48.834;9.228;2023-05-15T06:09:38;7.43;;;6.10;;
10529;SDS011;5313;48.834;9.228;2023-05-15T06:12:03;7.53;;;6.20;;
10529;SDS011;5313;48.834;9.228;2023-05-15T06:14:29;7.73;;;5.73;;
10529;SDS011;5313;48.834;9.228;2023-05-15T06:16:55;7.20;;;6.50;;
10529;SDS011;5313;48.834;9.228;2023-05-15T06:19:21;8.40;;;6.03;;
10529;SDS011;5313;48.834;9.228;2023-05-15T06:21:46;7.63;;;5.83;;
10529;SDS011;5313;48.834;9.228;2023-05-15T06:24:13;6.90;;;5.87;;
10529;SDS011;5313;48.834;9.228;2023-05-15T06:26:38;6.17;;;5.47;;
10529;SDS011;5313;48.834;9.228;2023-05-15T06:29:04;6.80;;;5.63;;
10529;SDS011;5313;48.834;9.228;2023-05-15T06:31:30;6.10;;;5.30;;
10529;SDS011;5313;48.834;9.228;2023-05-15T06:33:55;6.23;;;5.17;;
10529;SDS011;5313;48.834;9.228;2023-05-15T06:36:20;5.57;;;4.97;;
10529;SDS011;5313;48.834;9.228;2023-05-15T06:38:46;7.20;;;4.77;;
10529;SDS011;5313;48.834;9.228;2023-05-15T06:41:11;6.27;;;5.17;;
10529;SDS011;5313;48.834;9.228;2023-05-15T06:43:37;7.40;;;5.77;;
10529;SDS011;5313;48.834;9.228;2023-05-15T06:46:02;7.63;;;5.10;;
10529;SDS011;5313;48.834;9.228;2023-05-15T06:48:28;5.77;;;5.17;;
10529;SDS011;5313;48.834;9.228;2023-05-15T06:50:54;6.53;;;5.03;;
10529;SDS011;5313;48.834;9.228;2023-05-15T06:53:19;7.13;;;5.13;;
10529;SDS011;5313;48.834;9.228;2023-05-15T06:55:45;7.93;;;5.67;;
10529;SDS011;5313;48.834;9.228;2023-05-15T06:58:10;7.73;;;5.10;;
10529;SDS011;5313;48.834;9.228;2023-05-15T07:00:36;6.40;;;4.77;;
10529;SDS011;5313;48.834;9.228;2023-05-15T07:03:02;7.17;;;5.03;;
10529;SDS011;5313;48.834;9.228;2023-05-15T07:05:27;6.53;;;5.53;;
10529;SDS011;5313;48.834;9.228;2023-05-15T07:07:53;8.30;;;5.03;;
10529;SDS011;5313;48.834;9.228;2023-05-15T07:10:18;6.37;;;5.50;;
10529;SDS011;5313;48.834;9.228;2023-05-15T07:12:44;6.77;;;4.70;;
10529;SDS011;5313;48.834;9.228;2023-05-15T07:15:10;8.17;;;5.13;;
10529;SDS011;5313;48.834;9.228;2023-05-15T07:17:36;5.83;;;5.00;;
10529;SDS011;5313;48.834;9.228;2023-05-15T07:20:01;5.67;;;4.70;;
10529;SDS011;5313;48.834;9.228;2023-05-15T07:22:30;5.63;;;4.23;;
10529;SDS011;5313;48.834;9.228;2023-05-15T07:24:55;5.03;;;4.50;;
10529;SDS011;5313;48.834;9.228;2023-05-15T07:27:21;10.73;;;4.93;;
10529;SDS011;5313;48.834;9.228;2023-05-15T07:29:46;5.53;;;4.80;;
10529;SDS011;5313;48.834;9.228;2023-05-15T07:32:12;4.83;;;4.20;;
10529;SDS011;5313;48.834;9.228;2023-05-15T07:34:37;5.27;;;3.97;;
10529;SDS011;5313;48.834;9.228;2023-05-15T07:37:03;6.20;;;3.97;;
10529;SDS011;5313;48.834;9.228;2023-05-15T07:39:28;6.73;;;4.53;;
10529;SDS011;5313;48.834;9.228;2023-05-15T07:41:54;8.50;;;4.60;;
10529;SDS011;5313;48.834;9.228;2023-05-15T07:44:20;7.47;;;4.70;;
10529;SDS011;5313;48.834;9.228;2023-05-15T07:46:45;6.93;;;4.57;;
10529;SDS011;5313;48.834;9.228;2023-05-15T07:49:11;5.77;;;4.60;;
10529;SDS011;5313;48.834;9.228;2023-05-15T07:51:36;5.27;;;4.47;;
10529;SDS011;5313;48.834;9.228;2023-05-15T07:54:02;7.93;;;5.07;;
10529;SDS011;5313;48.834;9.228;2023-05-15T07:56:28;7.20;;;4.50;;
10529;SDS011;5313;48.834;9.228;2023-05-15T07:58:54;5.20;;;4.43;;
10529;SDS011;5313;48.834;9.228;2023-05-15T08:01:19;4.93;;;4.17;;
10529;SDS011;5313;48.834;9.228;2023-05-15T08:03:45;6.13;;;3.83;;
10529;SDS011;5313;48.834;9.228;2023-05-15T08:06:10;6.60;;;4.73;;
10529;SDS011;5313;48.834;9.228;2023-05-15T08:08:36;5.63;;;3.90;;
10529;SDS011;5313;48.834;9.228;2023-05-15T08:11:01;5.60;;;4.07;;
10529;SDS011;5313;48.834;9.228;2023-05-15T08:13:27;3.70;;;3.40;;
10529;SDS011;5313;48.834;9.228;2023-05-15T08:15:52;3.90;;;3.50;;
10529;SDS011;5313;48.834;9.228;2023-05-15T08:18:18;4.50;;;3.70;;
10529;SDS011;5313;48.834;9.228;2023-05-15T08:20:43;4.27;;;3.87;;
10529;SDS011;5313;48.834;9.228;2023-05-15T08:23:09;5.07;;;3.80;;
10529;SDS011;5313;48.834;9.228;2023-05-15T08:25:35;3.97;;;3.57;;
10529;SDS011;5313;48.834;9.228;2023-05-15T08:28:01;3.87;;;3.43;;
10529;SDS011;5313;48.834;9.228;2023-05-15T08:30:28;4.23;;;3.10;;
10529;SDS011;5313;48.834;9.228;2023-05-15T08:32:54;3.60;;;3.17;;
10529;SDS011;5313;48.834;9.228;2023-05-15T08:35:19;2.93;;;2.63;;
10529;SDS011;5313;48.834;9.228;2023-05-15T08:37:45;4.17;;;3.27;;
10529;SDS011;5313;48.834;9.228;2023-05-15T08:40:10;3.60;;;3.10;;
10529;SDS011;5313;48.834;9.228;2023-05-15T08:42:38;4.00;;;3.10;;
10529;SDS011;5313;48.834;9.228;2023-05-15T08:45:09;4.40;;;3.37;;
10529;SDS011;5313;48.834;9.228;2023-05-15T08:47:37;4.73;;;3.27;;
10529;SDS011;5313;48.834;9.228;2023-05-15T08:52:36;5.87;;;3.10;;
10529;SDS011;5313;48.834;9.228;2023-05-15T08:55:02;4.23;;;3.10;;
10529;SDS011;5313;48.834;9.228;2023-05-15T08:57:28;4.20;;;3.70;;
10529;SDS011;5313;48.834;9.228;2023-05-15T08:59:55;4.63;;;3.70;;
10529;SDS011;5313;48.834;9.228;2023-05-15T09:02:21;4.23;;;3.47;;
10529;SDS011;5313;48.834;9.228;2023-05-15T09:04:49;4.73;;;3.80;;
10529;SDS011;5313;48.834;9.228;2023-05-15T09:07:14;4.10;;;3.70;;
10529;SDS011;5313;48.834;9.228;2023-05-15T09:09:41;3.50;;;3.20;;
10529;SDS011;5313;48.834;9.228;2023-05-15T09:12:13;4.13;;;3.43;;
10529;SDS011;5313;48.834;9.228;2023-05-15T09:14:39;3.83;;;2.87;;
10529;SDS011;5313;48.834;9.228;2023-05-15T09:17:05;5.73;;;3.33;;
10529;SDS011;5313;48.834;9.228;2023-05-15T09:19:33;4.17;;;3.57;;
10529;SDS011;5313;48.834;9.228;2023-05-15T09:22:15;6.43;;;3.40;;
10529;SDS011;5313;48.834;9.228;2023-05-15T09:24:42;3.50;;;3.10;;
10529;SDS011;5313;48.834;9.228;2023-05-15T09:27:09;3.70;;;3.40;;
10529;SDS011;5313;48.834;9.228;2023-05-15T09:29:36;5.13;;;3.37;;
10529;SDS011;5313;48.834;9.228;2023-05-15T09:32:03;3.73;;;3.33;;
10529;SDS011;5313;48.834;9.228;2023-05-15T09:34:29;3.80;;;2.83;;
10529;SDS011;5313;48.834;9.228;2023-05-15T09:36:57;7.77;;;3.20;;
10529;SDS011;5313;48.834;9.228;2023-05-15T09:39:23;4.27;;;3.10;;
10529;SDS011;5313;48.834;9.228;2023-05-15T09:41:48;4.30;;;3.10;;
10529;SDS011;5313;48.834;9.228;2023-05-15T09:44:24;4.00;;;3.13;;
10529;SDS011;5313;48.834;9.228;2023-05-15T09:46:51;4.70;;;3.30;;
10529;SDS011;5313;48.834;9.228;2023-05-15T09:49:17;3.50;;;3.20;;
10529;SDS011;5313;48.834;9.228;2023-05-15T09:51:43;3.43;;;3.13;;
10529;SDS011;5313;48.834;9.228;2023-05-15T09:54:18;4.03;;;3.17;;
10529;SDS011;5313;48.834;9.228;2023-05-15T09:56:47;3.63;;;2.77;;
10529;SDS011;5313;48.834;9.228;2023-05-15T09:59:13;3.77;;;3.27;;
10529;SDS011;5313;48.834;9.228;2023-05-15T10:01:44;3.60;;;3.03;;
10529;SDS011;5313;48.834;9.228;2023-05-15T10:04:10;3.10;;;2.80;;
10529;SDS011;5313;48.834;9.228;2023-05-15T10:06:41;4.83;;;3.33;;
10529;SDS011;5313;48.834;9.228;2023-05-15T10:09:09;4.17;;;2.83;;
10529;SDS011;5313;48.834;9.228;2023-05-15T10:11:42;3.20;;;2.90;;
10529;SDS011;5313;48.834;9.228;2023-05-15T10:14:11;3.27;;;2.97;;
10529;SDS011;5313;48.834;9.228;2023-05-15T10:16:38;3.73;;;3.43;;
10529;SDS011;5313;48.834;9.228;2023-05-15T10:19:08;4.13;;;3.03;;
10529;SDS011;5313;48.834;9.228;2023-05-15T10:21:36;6.03;;;2.83;;
10529;SDS011;5313;48.834;9.228;2023-05-15T10:24:03;4.70;;;2.93;;
10529;SDS011;5313;48.834;9.228;2023-05-15T10:26:39;5.10;;;2.90;;
10529;SDS011;5313;48.834;9.228;2023-05-15T10:29:12;2.77;;;2.43;;
10529;SDS011;5313;48.834;9.228;2023-05-15T10:31:41;2.80;;;2.60;;
10529;SDS011;5313;48.834;9.228;2023-05-15T10:34:14;3.13;;;2.30;;
10529;SDS011;5313;48.834;9.228;2023-05-15T10:36:47;2.83;;;2.33;;
10529;SDS011;5313;48.834;9.228;2023-05-15T10:39:16;2.97;;;2.33;;
10529;SDS011;5313;48.834;9.228;2023-05-15T10:41:46;3.13;;;2.83;;
10529;SDS011;5313;48.834;9.228;2023-05-15T10:44:14;2.50;;;2.20;;
10529;SDS011;5313;48.834;9.228;2023-05-15T10:46:43;2.37;;;2.10;;
10529;SDS011;5313;48.834;9.228;2023-05-15T10:49:14;2.50;;;2.30;;
10529;SDS011;5313;48.834;9.228;2023-05-15T10:51:50;5.40;;;2.80;;
10529;SDS011;5313;48.834;9.228;2023-05-15T10:54:24;2.13;;;1.93;;
10529;SDS011;5313;48.834;9.228;2023-05-15T10:56:57;2.87;;;1.80;;
10529;SDS011;5313;48.834;9.228;2023-05-15T10:59:34;2.97;;;2.50;;
10529;SDS011;5313;48.834;9.228;2023-05-15T11:05:27;3.70;;;2.33;;
10529;SDS011;5313;48.834;9.228;2023-05-15T11:10:45;5.67;;;2.70;;
10529;SDS011;5313;48.834;9.228;2023-05-15T11:13:15;4.03;;;2.67;;
10529;SDS011;5313;48.834;9.228;2023-05-15T11:15:47;2.97;;;2.50;;
10529;SDS011;5313;48.834;9.228;2023-05-15T11:18:26;2.67;;;2.47;;
10529;SDS011;5313;48.834;9.228;2023-05-15T11:23:21;4.50;;;2.43;;
10529;SDS011;5313;48.834;9.228;2023-05-15T11:25:59;4.50;;;2.50;;
10529;SDS011;5313;48.834;9.228;2023-05-15T11:28:27;2.93;;;2.20;;
10529;SDS011;5313;48.834;9.228;2023-05-15T11:30:58;4.30;;;3.10;;
10529;SDS011;5313;48.834;9.228;2023-05-15T11:33:32;3.43;;;2.50;;
10529;SDS011;5313;48.834;9.228;2023-05-15T11:36:05;3.00;;;2.33;;
10529;SDS011;5313;48.834;9.228;2023-05-15T11:38:37;2.50;;;2.30;;
10529;SDS011;5313;48.834;9.228;2023-05-15T11:41:17;2.97;;;2.53;;
10529;SDS011;5313;48.834;9.228;2023-05-15T11:43:52;2.70;;;2.50;;
10529;SDS011;5313;48.834;9.228;2023-05-15T11:46:31;2.57;;;2.33;;
10529;SDS011;5313;48.834;9.228;2023-05-15T11:51:50;3.00;;;2.70;;
10529;SDS011;5313;48.834;9.228;2023-05-15T11:54:20;2.80;;;2.40;;
10529;SDS011;5313;48.834;9.228;2023-05-15T11:56:50;2.47;;;2.27;;
10529;SDS011;5313;48.834;9.228;2023-05-15T11:59:23;2.83;;;2.27;;
10529;SDS011;5313;48.834;9.228;2023-05-15T12:01:55;3.20;;;2.60;;
10529;SDS011;5313;48.834;9.228;2023-05-15T12:04:29;2.50;;;2.23;;
10529;SDS011;5313;48.834;9.228;2023-05-15T12:06:59;2.67;;;2.13;;
10529;SDS011;5313;48.834;9.228;2023-05-15T12:09:37;3.00;;;2.17;;
10529;SDS011;5313;48.834;9.228;2023-05-15T12:12:13;3.33;;;2.53;;
10529;SDS011;5313;48.834;9.228;2023-05-15T12:15:00;3.10;;;2.50;;
10529;SDS011;5313;48.834;9.228;2023-05-15T12:17:33;2.53;;;2.20;;
10529;SDS011;5313;48.834;9.228;2023-05-15T12:20:02;2.63;;;2.40;;
10529;SDS011;5313;48.834;9.228;2023-05-15T12:22:38;3.03;;;2.73;;
10529;SDS011;5313;48.834;9.228;2023-05-15T12:25:10;3.20;;;2.80;;
10529;SDS011;5313;48.834;9.228;2023-05-15T12:27:46;2.27;;;2.07;;
10529;SDS011;5313;48.834;9.228;2023-05-15T12:30:17;4.20;;;2.40;;
10529;SDS011;5313;48.834;9.228;2023-05-15T12:32:49;2.70;;;2.40;;
10529;SDS011;5313;48.834;9.228;2023-05-15T12:35:21;2.67;;;2.47;;
10529;SDS011;5313;48.834;9.228;2023-05-15T12:37:46;2.93;;;2.60;;
10529;SDS011;5313;48.834;9.228;2023-05-15T12:40:12;2.73;;;2.53;;
10529;SDS011;5313;48.834;9.228;2023-05-15T12:43:03;3.07;;;2.57;;
10529;SDS011;5313;48.834;9.228;2023-05-15T12:45:36;9.37;;;2.90;;
10529;SDS011;5313;48.834;9.228;2023-05-15T12:48:18;3.07;;;2.17;;
10529;SDS011;5313;48.834;9.228;2023-05-15T12:50:50;4.37;;;2.10;;
10529;SDS011;5313;48.834;9.228;2023-05-15T12:53:20;3.27;;;2.30;;
10529;SDS011;5313;48.834;9.228;2023-05-15T12:55:46;2.77;;;2.30;;
10529;SDS011;5313;48.834;9.228;2023-05-15T12:58:16;5.33;;;2.40;;
10529;SDS011;5313;48.834;9.228;2023-05-15T13:00:56;4.00;;;2.30;;
10529;SDS011;5313;48.834;9.228;2023-05-15T13:03:32;2.87;;;2.60;;
10529;SDS011;5313;48.834;9.228;2023-05-15T13:06:01;3.80;;;2.60;;
10529;SDS011;5313;48.834;9.228;2023-05-15T13:08:54;3.67;;;3.23;;
10529;SDS011;5313;48.834;9.228;2023-05-15T13:11:33;4.17;;;2.30;;
10529;SDS011;5313;48.834;9.228;2023-05-15T13:14:12;5.27;;;2.90;;
10529;SDS011;5313;48.834;9.228;2023-05-15T13:16:44;4.60;;;2.70;;
10529;SDS011;5313;48.834;9.228;2023-05-15T13:19:16;4.67;;;3.00;;
10529;SDS011;5313;48.834;9.228;2023-05-15T13:21:46;4.17;;;2.97;;
10529;SDS011;5313;48.834;9.228;2023-05-15T13:24:27;3.93;;;2.83;;
10529;SDS011;5313;48.834;9.228;2023-05-15T13:26:57;4.57;;;2.70;;
10529;SDS011;5313;48.834;9.228;2023-05-15T13:29:23;5.20;;;3.27;;
10529;SDS011;5313;48.834;9.228;2023-05-15T13:31:52;4.60;;;2.80;;
10529;SDS011;5313;48.834;9.228;2023-05-15T13:34:24;4.93;;;2.83;;
10529;SDS011;5313;48.834;9.228;2023-05-15T13:36:53;5.40;;;3.40;;
10529;SDS011;5313;48.834;9.228;2023-05-15T13:39:45;3.17;;;2.90;;
10529;SDS011;5313;48.834;9.228;2023-05-15T13:42:15;4.83;;;2.80;;
10529;SDS011;5313;48.834;9.228;2023-05-15T13:44:46;4.43;;;2.90;;
10529;SDS011;5313;48.834;9.228;2023-05-15T13:47:16;3.30;;;3.00;;
10529;SDS011;5313;48.834;9.228;2023-05-15T13:49:52;5.10;;;2.93;;
10529;SDS011;5313;48.834;9.228;2023-05-15T13:52:27;4.27;;;2.90;;
10529;SDS011;5313;48.834;9.228;2023-05-15T13:55:01;4.87;;;2.60;;
10529;SDS011;5313;48.834;9.228;2023-05-15T13:57:41;2.73;;;2.53;;
10529;SDS011;5313;48.834;9.228;2023-05-15T14:00:11;2.53;;;2.33;;
10529;SDS011;5313;48.834;9.228;2023-05-15T14:02:46;3.97;;;3.07;;
10529;SDS011;5313;48.834;9.228;2023-05-15T14:05:18;3.60;;;2.90;;
10529;SDS011;5313;48.834;9.228;2023-05-15T14:08:08;5.80;;;2.90;;
10529;SDS011;5313;48.834;9.228;2023-05-15T14:10:37;2.83;;;2.53;;
10529;SDS011;5313;48.834;9.228;2023-05-15T14:13:04;5.10;;;3.00;;
10529;SDS011;5313;48.834;9.228;2023-05-15T14:15:30;4.50;;;2.47;;
10529;SDS011;5313;48.834;9.228;2023-05-15T14:18:02;4.20;;;2.63;;
10529;SDS011;5313;48.834;9.228;2023-05-15T14:20:37;4.40;;;3.10;;
10529;SDS011;5313;48.834;9.228;2023-05-15T14:23:05;3.77;;;2.97;;
10529;SDS011;5313;48.834;9.228;2023-05-15T14:25:35;3.17;;;2.70;;
10529;SDS011;5313;48.834;9.228;2023-05-15T14:28:17;2.73;;;2.53;;
10529;SDS011;5313;48.834;9.228;2023-05-15T14:30:48;3.57;;;2.93;;
10529;SDS011;5313;48.834;9.228;2023-05-15T14:33:18;3.97;;;2.60;;
10529;SDS011;5313;48.834;9.228;2023-05-15T14:35:53;3.60;;;2.50;;
10529;SDS011;5313;48.834;9.228;2023-05-15T14:38:18;4.50;;;2.80;;
10529;SDS011;5313;48.834;9.228;2023-05-15T14:40:44;5.70;;;2.60;;
10529;SDS011;5313;48.834;9.228;2023-05-15T14:43:10;4.90;;;2.80;;
10529;SDS011;5313;48.834;9.228;2023-05-15T14:45:35;3.93;;;2.93;;
10529;SDS011;5313;48.834;9.228;2023-05-15T14:48:01;3.40;;;3.10;;
10529;SDS011;5313;48.834;9.228;2023-05-15T14:50:26;4.13;;;3.00;;
10529;SDS011;5313;48.834;9.228;2023-05-15T14:52:52;6.63;;;3.10;;
10529;SDS011;5313;48.834;9.228;2023-05-15T14:55:18;4.57;;;2.90;;
10529;SDS011;5313;48.834;9.228;2023-05-15T14:57:47;3.30;;;3.00;;
10529;SDS011;5313;48.834;9.228;2023-05-15T15:00:15;2.90;;;2.43;;
10529;SDS011;5313;48.834;9.228;2023-05-15T15:02:41;5.07;;;2.53;;
10529;SDS011;5313;48.834;9.228;2023-05-15T15:05:07;2.77;;;2.43;;
10529;SDS011;5313;48.834;9.228;2023-05-15T15:10:22;3.53;;;2.20;;
10529;SDS011;5313;48.834;9.228;2023-05-15T15:12:49;4.10;;;2.60;;
10529;SDS011;5313;48.834;9.228;2023-05-15T15:15:15;3.97;;;2.53;;
10529;SDS011;5313;48.834;9.228;2023-05-15T15:17:41;3.37;;;2.50;;
10529;SDS011;5313;48.834;9.228;2023-05-15T15:20:07;4.23;;;3.27;;
10529;SDS011;5313;48.834;9.228;2023-05-15T15:22:33;4.07;;;3.07;;
10529;SDS011;5313;48.834;9.228;2023-05-15T15:24:59;3.50;;;3.13;;
10529;SDS011;5313;48.834;9.228;2023-05-15T15:27:25;5.10;;;3.60;;
10529;SDS011;5313;48.834;9.228;2023-05-15T15:29:51;4.80;;;3.77;;
10529;SDS011;5313;48.834;9.228;2023-05-15T15:32:16;5.00;;;3.53;;
10529;SDS011;5313;48.834;9.228;2023-05-15T15:34:42;5.32;;;4.28;;
10529;SDS011;5313;48.834;9.228;2023-05-15T15:37:08;4.47;;;3.50;;
10529;SDS011;5313;48.834;9.228;2023-05-15T15:39:33;4.77;;;4.33;;
10529;SDS011;5313;48.834;9.228;2023-05-15T15:41:59;7.30;;;5.00;;